createdAt,value
2018-02-22T00:00:38.596Z,12.80
2018-02-22T00:03:06.087Z,14.43
2018-02-22T00:05:33.513Z,11.80
2018-02-22T00:08:00.983Z,11.63
2018-02-22T00:10:28.418Z,12.10
2018-02-22T00:12:55.864Z,14.60
2018-02-22T00:15:23.361Z,13.30
2018-02-22T00:17:51.136Z,14.17
2018-02-22T00:20:18.685Z,20.93
2018-02-22T00:22:46.124Z,15.18
2018-02-22T00:25:13.835Z,12.17
2018-02-22T00:27:42.084Z,12.90
2018-02-22T00:30:09.632Z,12.97
2018-02-22T00:32:37.074Z,12.20
2018-02-22T00:35:04.552Z,12.13
2018-02-22T00:37:32.110Z,11.63
2018-02-22T00:39:59.563Z,11.73
2018-02-22T00:42:27.120Z,12.10
2018-02-22T00:44:54.579Z,12.67
2018-02-22T00:47:22.042Z,12.73
2018-02-22T00:49:49.600Z,12.80
2018-02-22T00:52:17.056Z,12.20
2018-02-22T00:54:44.611Z,12.73
2018-02-22T00:57:12.056Z,12.03
2018-02-22T00:59:39.501Z,11.43
2018-02-22T01:02:06.984Z,11.10
2018-02-22T01:04:34.446Z,11.87
2018-02-22T01:07:01.893Z,11.37
2018-02-22T01:09:29.352Z,12.27
2018-02-22T01:11:56.791Z,11.70
2018-02-22T01:14:24.611Z,12.10
2018-02-22T01:16:52.814Z,11.67
2018-02-22T01:19:20.255Z,11.50
2018-02-22T01:21:48.463Z,11.43
2018-02-22T01:24:15.947Z,10.47
2018-02-22T01:26:43.392Z,11.13
2018-02-22T01:29:10.828Z,11.30
2018-02-22T01:31:38.311Z,10.50
2018-02-22T01:34:05.867Z,11.40
2018-02-22T01:36:33.321Z,10.13
2018-02-22T01:39:00.779Z,10.03
2018-02-22T01:41:28.240Z,10.37
2018-02-22T01:43:55.696Z,9.83
2018-02-22T01:46:23.155Z,11.53
2018-02-22T01:48:50.595Z,10.13
2018-02-22T01:51:18.059Z,9.93
2018-02-22T01:53:45.503Z,9.70
2018-02-22T01:56:12.975Z,11.80
2018-02-22T01:58:40.411Z,10.63
2018-02-22T02:01:07.853Z,10.80
2018-02-22T02:03:35.300Z,10.00
2018-02-22T02:06:03.524Z,10.10
2018-02-22T02:08:30.967Z,10.03
2018-02-22T02:10:58.443Z,11.00
2018-02-22T02:13:25.877Z,10.10
2018-02-22T02:15:53.335Z,10.80
2018-02-22T02:18:20.775Z,10.10
2018-02-22T02:20:48.264Z,10.43
2018-02-22T02:23:15.712Z,9.60
2018-02-22T02:25:44.099Z,9.67
2018-02-22T02:28:11.544Z,10.97
2018-02-22T02:30:39.016Z,9.83
2018-02-22T02:33:06.476Z,9.30
2018-02-22T02:35:33.928Z,10.20
2018-02-22T02:38:01.378Z,11.80
2018-02-22T02:40:28.839Z,10.63
2018-02-22T02:42:56.300Z,11.20
2018-02-22T02:45:23.736Z,9.37
2018-02-22T02:47:51.187Z,10.37
2018-02-22T02:50:18.701Z,10.10
2018-02-22T02:52:46.143Z,10.50
2018-02-22T02:55:13.683Z,10.13
2018-02-22T02:57:41.124Z,11.50
2018-02-22T03:00:08.574Z,9.90
2018-02-22T03:02:36.063Z,9.97
2018-02-22T03:05:03.517Z,10.87
2018-02-22T03:07:31.066Z,11.30
2018-02-22T03:09:58.503Z,9.97
2018-02-22T03:12:25.959Z,9.07
2018-02-22T03:14:53.390Z,9.77
2018-02-22T03:17:21.588Z,9.87
2018-02-22T03:19:49.023Z,9.50
2018-02-22T03:22:16.460Z,10.23
2018-02-22T03:24:43.993Z,11.37
2018-02-22T03:27:11.427Z,10.40
2018-02-22T03:29:38.879Z,10.07
2018-02-22T03:32:06.320Z,11.37
2018-02-22T03:34:34.639Z,11.50
2018-02-22T03:37:02.196Z,11.50
2018-02-22T03:39:29.644Z,9.90
2018-02-22T03:41:57.093Z,10.33
2018-02-22T03:44:24.542Z,10.50
2018-02-22T03:46:52.024Z,11.67
2018-02-22T03:49:19.464Z,10.77
2018-02-22T03:51:46.923Z,10.50
2018-02-22T03:54:14.396Z,13.00
2018-02-22T03:56:41.847Z,9.80
2018-02-22T03:59:09.308Z,10.83
2018-02-22T04:01:36.763Z,10.37
2018-02-22T04:04:04.217Z,11.50
2018-02-22T04:06:31.673Z,10.90
2018-02-22T04:08:59.135Z,11.00
2018-02-22T04:11:26.576Z,10.20
2018-02-22T04:13:54.017Z,9.77
2018-02-22T04:16:21.500Z,10.67
2018-02-22T04:18:48.944Z,10.10
2018-02-22T04:21:16.385Z,10.07
2018-02-22T04:23:43.821Z,9.60
2018-02-22T04:26:12.043Z,10.93
2018-02-22T04:28:39.486Z,9.50
2018-02-22T04:31:06.930Z,9.23
2018-02-22T04:33:34.364Z,8.90
2018-02-22T04:36:02.583Z,9.57
2018-02-22T04:38:30.048Z,8.93
2018-02-22T04:40:57.487Z,10.10
2018-02-22T04:43:24.927Z,9.20
2018-02-22T04:45:52.448Z,8.77
2018-02-22T04:48:19.972Z,9.30
2018-02-22T04:50:47.408Z,8.10
2018-02-22T04:53:14.889Z,9.43
2018-02-22T04:55:42.324Z,9.13
2018-02-22T04:58:10.036Z,9.20
2018-02-22T05:00:37.468Z,8.57
2018-02-22T05:03:04.924Z,8.30
2018-02-22T05:05:33.199Z,8.90
2018-02-22T05:08:00.757Z,7.60
2018-02-22T05:10:28.214Z,7.40
2018-02-22T05:12:56.519Z,7.63
2018-02-22T05:15:24.361Z,8.53
2018-02-22T05:17:52.540Z,7.67
2018-02-22T05:20:20.087Z,8.60
2018-02-22T05:22:47.547Z,8.30
2018-02-22T05:25:15.215Z,7.80
2018-02-22T05:27:42.664Z,8.60
2018-02-22T05:30:10.120Z,8.87
2018-02-22T05:32:37.831Z,8.00
2018-02-22T05:35:06.023Z,9.50
2018-02-22T05:37:33.755Z,8.77
2018-02-22T05:40:01.973Z,9.50
2018-02-22T05:42:29.502Z,9.93
2018-02-22T05:44:56.919Z,9.50
2018-02-22T05:47:24.367Z,8.80
2018-02-22T05:49:51.940Z,10.93
2018-02-22T05:52:19.487Z,12.57
2018-02-22T05:54:46.943Z,11.17
2018-02-22T05:57:14.401Z,10.17
2018-02-22T05:59:42.399Z,10.17
2018-02-22T06:02:09.928Z,10.03
2018-02-22T06:04:37.382Z,11.20
2018-02-22T06:07:04.823Z,10.47
2018-02-22T06:09:32.255Z,9.40
2018-02-22T06:11:59.756Z,10.57
2018-02-22T06:14:27.212Z,10.57
2018-02-22T06:16:54.675Z,9.20
2018-02-22T06:19:22.154Z,9.90
2018-02-22T06:21:49.685Z,9.40
2018-02-22T06:24:17.127Z,9.30
2018-02-22T06:26:44.596Z,10.43
2018-02-22T06:29:12.044Z,10.93
2018-02-22T06:31:39.503Z,9.90
2018-02-22T06:34:06.937Z,10.30
2018-02-22T06:36:34.401Z,10.83
2018-02-22T06:39:01.841Z,10.00
2018-02-22T06:41:29.278Z,10.37
2018-02-22T06:43:57.492Z,9.87
2018-02-22T06:46:24.971Z,10.70
2018-02-22T06:48:52.428Z,9.37
2018-02-22T06:51:19.863Z,9.00
2018-02-22T06:53:47.340Z,8.53
2018-02-22T06:56:14.801Z,9.77
2018-02-22T06:58:42.257Z,9.83
2018-02-22T07:01:09.804Z,8.10
2018-02-22T07:03:37.277Z,9.30
2018-02-22T07:06:04.735Z,8.37
2018-02-22T07:08:32.288Z,9.00
2018-02-22T07:10:59.737Z,9.17
2018-02-22T07:13:27.207Z,8.53
2018-02-22T07:15:54.662Z,8.20
2018-02-22T07:18:22.096Z,9.10
2018-02-22T07:20:50.104Z,8.57
2018-02-22T07:23:17.551Z,8.17
2018-02-22T07:25:45.100Z,8.40
2018-02-22T07:28:12.560Z,8.27
2018-02-22T07:30:40.899Z,8.80
2018-02-22T07:33:08.392Z,9.00
2018-02-22T07:35:35.965Z,8.03
2018-02-22T07:38:03.406Z,8.07
2018-02-22T07:40:31.636Z,8.33
2018-02-22T07:42:59.067Z,8.03
2018-02-22T07:45:26.575Z,9.40
2018-02-22T07:47:54.020Z,9.37
2018-02-22T07:50:21.512Z,9.40
2018-02-22T07:52:48.969Z,8.70
2018-02-22T07:55:16.408Z,7.93
2018-02-22T07:57:43.886Z,9.50
2018-02-22T08:00:11.378Z,8.40
2018-02-22T08:02:39.109Z,7.03
2018-02-22T08:05:06.535Z,7.87
2018-02-22T08:07:33.972Z,9.53
2018-02-22T08:10:01.668Z,9.30
2018-02-22T08:12:29.130Z,8.40
2018-02-22T08:14:57.308Z,9.23
2018-02-22T08:17:24.975Z,9.07
2018-02-22T08:19:52.432Z,8.90
2018-02-22T08:22:19.872Z,9.60
2018-02-22T08:24:47.307Z,9.60
2018-02-22T08:27:14.751Z,9.30
2018-02-22T08:29:42.971Z,9.13
2018-02-22T08:32:10.407Z,8.30
2018-02-22T08:34:37.856Z,8.83
2018-02-22T08:37:05.349Z,9.67
2018-02-22T08:39:33.228Z,7.80
2018-02-22T08:42:00.772Z,8.70
2018-02-22T08:44:29.054Z,8.50
2018-02-22T08:46:57.016Z,8.10
2018-02-22T08:49:24.478Z,9.23
2018-02-22T08:51:51.923Z,8.33
2018-02-22T08:54:19.483Z,9.50
2018-02-22T08:56:46.928Z,8.50
2018-02-22T08:59:14.359Z,8.40
2018-02-22T09:01:41.792Z,8.67
2018-02-22T09:04:10.032Z,7.60
2018-02-22T09:06:37.607Z,9.30
2018-02-22T09:09:05.035Z,8.10
2018-02-22T09:11:32.505Z,8.10
2018-02-22T09:13:59.967Z,8.73
2018-02-22T09:16:27.440Z,9.97
2018-02-22T09:18:54.895Z,9.57
2018-02-22T09:21:22.342Z,8.60
2018-02-22T09:23:49.775Z,8.57
2018-02-22T09:26:17.226Z,9.13
2018-02-22T09:28:44.703Z,8.73
2018-02-22T09:31:12.263Z,8.60
2018-02-22T09:33:39.787Z,7.77
2018-02-22T09:36:07.279Z,14.93
2018-02-22T09:38:34.839Z,9.30
2018-02-22T09:41:02.275Z,6.50
2018-02-22T09:43:29.747Z,6.77
2018-02-22T09:45:57.184Z,7.30
2018-02-22T09:48:24.664Z,6.93
2018-02-22T09:50:52.092Z,7.07
2018-02-22T09:53:19.531Z,7.50
2018-02-22T09:55:47.760Z,7.47
2018-02-22T09:58:15.191Z,5.87
2018-02-22T10:00:42.667Z,7.30
2018-02-22T10:03:10.099Z,8.33
2018-02-22T10:05:37.577Z,6.70
2018-02-22T10:08:05.016Z,7.63
2018-02-22T10:10:32.462Z,6.97
2018-02-22T10:12:59.951Z,7.07
2018-02-22T10:15:27.411Z,7.47
2018-02-22T10:17:54.966Z,7.50
2018-02-22T10:20:22.423Z,7.70
2018-02-22T10:22:49.861Z,8.20
2018-02-22T10:25:17.343Z,7.23
2018-02-22T10:27:45.327Z,7.80
2018-02-22T10:30:12.777Z,7.27
2018-02-22T10:32:40.211Z,7.57
2018-02-22T10:35:07.676Z,7.20
2018-02-22T10:37:35.136Z,7.90
2018-02-22T10:40:02.576Z,7.70
2018-02-22T10:42:30.044Z,7.47
2018-02-22T10:44:57.503Z,7.80
2018-02-22T10:47:25.476Z,8.20
2018-02-22T10:49:52.916Z,7.77
2018-02-22T10:52:20.378Z,8.70
2018-02-22T10:54:47.854Z,7.67
2018-02-22T10:57:15.276Z,6.83
2018-02-22T10:59:42.760Z,7.87
2018-02-22T11:02:15.884Z,7.80
2018-02-22T11:04:44.120Z,7.53
2018-02-22T11:07:11.563Z,7.80
2018-02-22T11:09:39.000Z,7.03
2018-02-22T11:12:06.431Z,7.27
2018-02-22T11:14:35.540Z,8.03
2018-02-22T11:17:02.927Z,6.33
2018-02-22T11:19:30.396Z,6.93
2018-02-22T11:21:57.852Z,7.37
2018-02-22T11:24:25.320Z,7.20
2018-02-22T11:26:52.763Z,7.40
2018-02-22T11:29:20.192Z,6.10
2018-02-22T11:31:47.667Z,7.50
2018-02-22T11:34:15.144Z,8.00
2018-02-22T11:36:42.576Z,7.30
2018-02-22T11:39:10.053Z,7.00
2018-02-22T11:41:37.504Z,6.50
2018-02-22T11:44:04.995Z,5.70
2018-02-22T11:46:32.380Z,5.83
2018-02-22T11:48:59.831Z,6.10
2018-02-22T11:51:27.331Z,5.57
2018-02-22T11:53:54.779Z,6.10
2018-02-22T11:56:22.252Z,6.80
2018-02-22T11:58:49.704Z,6.47
2018-02-22T12:01:17.160Z,6.10
2018-02-22T12:03:44.595Z,6.53
2018-02-22T12:06:12.821Z,5.67
2018-02-22T12:08:40.467Z,5.80
2018-02-22T12:11:07.911Z,5.70
2018-02-22T12:13:35.372Z,5.07
2018-02-22T12:16:02.828Z,5.13
2018-02-22T12:18:30.284Z,4.80
2018-02-22T12:20:57.837Z,4.40
2018-02-22T12:23:25.299Z,5.63
2018-02-22T12:25:52.770Z,4.70
2018-02-22T12:28:20.313Z,4.10
2018-02-22T12:30:47.740Z,5.13
2018-02-22T12:33:15.176Z,5.73
2018-02-22T12:35:43.395Z,5.30
2018-02-22T12:38:10.836Z,5.40
2018-02-22T12:40:38.280Z,5.37
2018-02-22T12:43:05.728Z,5.80
2018-02-22T12:45:33.228Z,5.10
2018-02-22T12:48:00.665Z,5.97
2018-02-22T12:50:28.111Z,5.90
2018-02-22T12:52:55.599Z,5.07
2018-02-22T12:55:23.033Z,5.13
2018-02-22T12:57:50.472Z,5.23
2018-02-22T13:00:17.968Z,5.07
2018-02-22T13:02:45.403Z,5.07
2018-02-22T13:05:12.883Z,4.47
2018-02-22T13:07:40.443Z,5.13
2018-02-22T13:10:07.871Z,5.27
2018-02-22T13:12:35.303Z,4.90
2018-02-22T13:15:03.528Z,5.43
2018-02-22T13:17:30.983Z,4.70
2018-02-22T13:19:58.415Z,3.90
2018-02-22T13:22:25.899Z,4.83
2018-02-22T13:24:53.680Z,5.17
2018-02-22T13:27:21.223Z,5.20
2018-02-22T13:29:48.679Z,4.43
2018-02-22T13:32:16.136Z,4.80
2018-02-22T13:34:43.570Z,4.97
2018-02-22T13:37:22.980Z,4.63
2018-02-22T13:39:51.199Z,4.77
2018-02-22T13:42:18.659Z,4.50
2018-02-22T13:44:57.801Z,4.73
2018-02-22T13:47:25.228Z,4.67
2018-02-22T13:50:04.621Z,4.40
2018-02-22T13:52:32.863Z,4.23
2018-02-22T13:55:00.414Z,4.93
2018-02-22T13:57:27.876Z,4.87
2018-02-22T13:59:55.320Z,4.60
2018-02-22T14:02:24.903Z,3.93
2018-02-22T14:04:52.396Z,5.30
2018-02-22T14:07:19.859Z,4.80
2018-02-22T14:09:47.300Z,4.53
2018-02-22T14:12:14.775Z,3.73
2018-02-22T14:14:42.239Z,4.53
2018-02-22T14:17:09.823Z,4.43
2018-02-22T14:19:37.248Z,4.33
2018-02-22T14:22:04.801Z,4.70
2018-02-22T14:24:32.234Z,5.00
2018-02-22T14:26:59.656Z,4.20
2018-02-22T14:29:27.866Z,3.90
2018-02-22T14:31:55.296Z,4.60
2018-02-22T14:34:23.516Z,4.00
2018-02-22T14:36:50.972Z,4.40
2018-02-22T14:39:18.391Z,4.40
2018-02-22T14:41:45.910Z,3.87
2018-02-22T14:44:13.443Z,4.10
2018-02-22T14:46:40.866Z,3.87
2018-02-22T14:49:08.296Z,4.33
2018-02-22T14:51:36.504Z,5.00
2018-02-22T14:54:03.996Z,4.50
2018-02-22T14:56:31.547Z,4.73
2018-02-22T14:58:59.007Z,4.53
2018-02-22T15:01:26.478Z,4.70
2018-02-22T15:03:53.923Z,5.23
2018-02-22T15:06:21.383Z,4.60
2018-02-22T15:08:48.835Z,4.40
2018-02-22T15:11:16.299Z,4.37
2018-02-22T15:13:43.752Z,4.10
2018-02-22T15:16:11.195Z,4.30
2018-02-22T15:18:38.644Z,4.63
2018-02-22T15:21:06.120Z,4.80
2018-02-22T15:23:33.575Z,5.10
2018-02-22T15:26:01.832Z,5.23
2018-02-22T15:28:29.257Z,5.03
2018-02-22T15:30:57.455Z,6.10
2018-02-22T15:33:24.885Z,5.10
2018-02-22T15:35:53.096Z,5.70
2018-02-22T15:38:20.527Z,4.90
2018-02-22T15:40:47.987Z,4.70
2018-02-22T15:43:15.415Z,5.27
2018-02-22T15:45:42.944Z,5.37
2018-02-22T15:48:10.395Z,4.37
2018-02-22T15:50:37.824Z,5.00
2018-02-22T15:53:05.250Z,6.10
2018-02-22T15:55:33.481Z,4.67
2018-02-22T15:58:00.941Z,5.03
2018-02-22T16:00:28.371Z,4.90
2018-02-22T16:02:55.805Z,4.57
2018-02-22T16:05:24.007Z,4.70
2018-02-22T16:07:51.440Z,4.90
2018-02-22T16:10:18.868Z,4.53
2018-02-22T16:12:46.415Z,4.30
2018-02-22T16:15:13.851Z,4.30
2018-02-22T16:17:41.288Z,4.97
2018-02-22T16:20:08.747Z,5.37
2018-02-22T16:22:36.177Z,5.40
2018-02-22T16:25:04.400Z,4.87
2018-02-22T16:27:31.876Z,4.70
2018-02-22T16:29:59.271Z,4.50
2018-02-22T16:32:26.767Z,4.67
2018-02-22T16:34:54.227Z,4.40
2018-02-22T16:37:21.676Z,4.70
2018-02-22T16:39:49.105Z,4.40
2018-02-22T16:42:16.545Z,5.70
2018-02-22T16:44:44.780Z,5.77
2018-02-22T16:47:12.224Z,5.00
2018-02-22T16:49:39.661Z,4.80
2018-02-22T16:52:07.144Z,4.80
2018-02-22T16:54:34.601Z,4.70
2018-02-22T16:57:02.040Z,4.90
2018-02-22T16:59:29.464Z,4.60
2018-02-22T17:01:57.671Z,4.83
2018-02-22T17:04:25.143Z,4.37
2018-02-22T17:06:52.572Z,5.00
2018-02-22T17:09:20.070Z,4.27
2018-02-22T17:11:47.443Z,4.80
2018-02-22T17:14:14.972Z,5.47
2018-02-22T17:16:42.403Z,13.90
2018-02-22T17:19:09.856Z,6.87
2018-02-22T17:21:37.292Z,12.80
2018-02-22T17:24:04.805Z,12.07
2018-02-22T17:26:37.924Z,7.20
2018-02-22T17:29:11.960Z,7.20
2018-02-22T17:31:45.159Z,9.40
2018-02-22T17:34:12.754Z,12.33
2018-02-22T17:36:44.115Z,7.27
2018-02-22T17:42:20.944Z,6.20
2018-02-22T17:44:49.156Z,7.23
2018-02-22T17:47:16.625Z,8.40
2018-02-22T17:49:44.080Z,9.63
2018-02-22T17:52:11.547Z,7.13
2018-02-22T17:54:39.006Z,6.83
2018-02-22T17:57:06.435Z,8.73
2018-02-22T17:59:33.868Z,6.90
2018-02-22T18:02:01.308Z,6.10
2018-02-22T18:04:29.546Z,6.30
2018-02-22T18:06:56.988Z,5.83
2018-02-22T18:09:24.988Z,5.43
2018-02-22T18:11:52.443Z,5.70
2018-02-22T18:14:19.871Z,6.40
2018-02-22T18:16:47.315Z,5.03
2018-02-22T18:19:14.780Z,5.73
2018-02-22T18:21:42.207Z,5.50
2018-02-22T18:24:09.791Z,5.17
2018-02-22T18:26:37.212Z,5.00
2018-02-22T18:29:05.410Z,4.30
2018-02-22T18:31:32.900Z,5.13
2018-02-22T18:34:00.464Z,5.17
2018-02-22T18:36:27.892Z,5.03
2018-02-22T18:39:00.968Z,5.37
2018-02-22T18:41:28.709Z,5.70
2018-02-22T18:44:02.735Z,5.23
2018-02-22T18:46:30.163Z,5.30
2018-02-22T18:48:57.599Z,5.23
2018-02-22T18:51:25.141Z,5.10
2018-02-22T18:53:53.291Z,5.70
2018-02-22T18:56:20.723Z,5.83
2018-02-22T18:58:48.920Z,5.87
2018-02-22T19:01:16.351Z,8.40
2018-02-22T19:03:44.568Z,8.77
2018-02-22T19:06:12.026Z,5.93
2018-02-22T19:08:39.444Z,6.20
2018-02-22T19:11:07.649Z,10.40
2018-02-22T19:13:35.068Z,5.07
2018-02-22T19:16:03.279Z,6.40
2018-02-22T19:18:30.768Z,6.60
2018-02-22T19:20:58.201Z,9.38
2018-02-22T19:23:25.636Z,7.90
2018-02-22T19:25:53.113Z,4.97
2018-02-22T19:28:21.267Z,5.53
2018-02-22T19:30:48.692Z,4.90
2018-02-22T19:33:16.887Z,5.70
2018-02-22T19:35:44.328Z,5.00
2018-02-22T19:38:12.524Z,5.80
2018-02-22T19:40:40.000Z,4.40
2018-02-22T19:43:07.431Z,6.30
2018-02-22T19:45:35.632Z,14.10
2018-02-22T19:48:03.063Z,9.30
2018-02-22T19:50:30.499Z,6.33
2018-02-22T19:52:58.687Z,4.70
2018-02-22T19:55:26.892Z,4.63
2018-02-22T19:57:54.331Z,6.13
2018-02-22T20:00:21.761Z,5.95
2018-02-22T20:02:49.963Z,6.22
2018-02-22T20:05:17.407Z,6.85
2018-02-22T20:07:45.612Z,5.80
2018-02-22T20:10:13.072Z,6.20
2018-02-22T20:12:40.503Z,6.07
2018-02-22T20:15:07.949Z,5.57
2018-02-22T20:17:36.165Z,7.43
2018-02-22T20:20:03.587Z,17.10
2018-02-22T20:22:31.021Z,6.03
2018-02-22T20:24:58.473Z,7.60
2018-02-22T20:27:25.907Z,8.00
2018-02-22T20:29:53.335Z,5.87
2018-02-22T20:32:20.772Z,6.40
2018-02-22T20:34:48.206Z,7.90
2018-02-22T20:37:16.431Z,6.60
2018-02-22T20:39:43.871Z,7.10
2018-02-22T20:42:11.304Z,10.03
2018-02-22T20:44:39.537Z,6.53
2018-02-22T20:47:06.956Z,5.60
2018-02-22T20:49:34.383Z,8.55
2018-02-22T20:52:02.597Z,6.87
2018-02-22T20:54:30.028Z,7.27
2018-02-22T20:56:58.226Z,7.37
2018-02-22T20:59:25.668Z,6.97
2018-02-22T21:01:53.121Z,8.35
2018-02-22T21:04:20.547Z,6.70
2018-02-22T21:06:47.974Z,7.65
2018-02-22T21:09:15.416Z,7.87
2018-02-22T21:11:42.851Z,6.47
2018-02-22T21:14:10.288Z,8.20
2018-02-22T21:16:38.494Z,7.00
2018-02-22T21:19:05.925Z,5.73
2018-02-22T21:21:34.140Z,6.67
2018-02-22T21:24:01.568Z,8.20
2018-02-22T21:26:28.996Z,6.90
2018-02-22T21:28:57.204Z,7.20
2018-02-22T21:31:24.644Z,7.13
2018-02-22T21:33:52.846Z,7.50
2018-02-22T21:36:20.275Z,6.37
2018-02-22T21:38:47.715Z,7.13
2018-02-22T21:41:15.147Z,12.70
2018-02-22T21:43:42.604Z,13.95
2018-02-22T21:46:10.057Z,8.60
2018-02-22T21:48:37.503Z,11.87
2018-02-22T21:51:04.944Z,13.23
2018-02-22T21:53:32.371Z,6.90
2018-02-22T21:56:00.597Z,6.70
2018-02-22T21:58:28.039Z,6.50
2018-02-22T22:00:55.508Z,8.07
2018-02-22T22:03:22.939Z,15.40
2018-02-22T22:05:50.367Z,10.23
2018-02-22T22:08:18.591Z,9.90
2018-02-22T22:10:46.767Z,7.17
2018-02-22T22:13:14.199Z,14.37
2018-02-22T22:15:41.644Z,7.30
2018-02-22T22:18:09.088Z,17.33
2018-02-22T22:20:37.287Z,16.13
2018-02-22T22:23:04.731Z,15.37
2018-02-22T22:25:32.228Z,13.50
2018-02-22T22:27:59.700Z,10.37
2018-02-22T22:30:29.498Z,17.97
2018-02-22T22:32:56.958Z,9.50
2018-02-22T22:35:24.619Z,13.47
2018-02-22T22:37:52.281Z,9.87
2018-02-22T22:40:19.731Z,15.90
2018-02-22T22:42:47.180Z,9.87
2018-02-22T22:45:14.659Z,8.23
2018-02-22T22:47:42.115Z,7.57
2018-02-22T22:50:09.562Z,10.90
2018-02-22T22:52:36.993Z,14.00
2018-02-22T22:55:04.434Z,11.37
2018-02-22T22:57:32.035Z,14.60
2018-02-22T22:59:59.488Z,8.30
2018-02-22T23:02:26.949Z,8.10
2018-02-22T23:04:54.410Z,7.80
2018-02-22T23:07:21.841Z,7.87
2018-02-22T23:09:49.269Z,7.73
2018-02-22T23:12:18.001Z,8.40
2018-02-22T23:14:45.434Z,15.20
2018-02-22T23:17:13.547Z,8.70
2018-02-22T23:19:40.968Z,12.73
2018-02-22T23:22:08.444Z,9.80
2018-02-22T23:24:35.896Z,8.00
2018-02-22T23:27:03.330Z,6.93
2018-02-22T23:29:30.775Z,8.33
2018-02-22T23:31:58.203Z,7.60
2018-02-22T23:34:26.401Z,7.27
2018-02-22T23:36:53.836Z,6.27
2018-02-22T23:39:22.031Z,6.47
2018-02-22T23:44:53.516Z,5.50
2018-02-22T23:47:20.963Z,7.07
2018-02-22T23:49:48.391Z,6.50
2018-02-22T23:52:15.824Z,7.07
2018-02-22T23:54:43.260Z,6.20
2018-02-22T23:57:10.744Z,5.60
2018-02-22T23:59:38.172Z,6.37
